Segundo Ensanche, Spain
Current Conditions -  °F | °C
As of 3:00 PM on Saturday 20 Dec 2014 (Local Time) from LEPP Reporting Station
Broken Clouds Broken Clouds  
Wind Chill: 54°   Ceiling: 2400
Heat Index: 54°   Visibility: 6mi
Dew Point: 50°   Wind: 10mph
Humidity: 88%   Direction: 330°NNW
Pressure: 30.5"   Gusts: NA
Location:  42.81°N, 1.64°W
Report Text: LEPP 201400Z 33009KT 9999 FEW016 BKN024 12/10 Q1033
Loading
Personal Weather Stations






























Interactive Weather Map New forecast layout! Learn more

10-Day Weather Forecast

Advertisements
Track Severe Weather on mobile